Time;durP1;ratioP1;P1;durP2;ratioP2;P2;SDS_P1;SDS_P2;PMS_P1;PMS_P2;Temp;Humidity;BMP_temperature;BMP_pressure;BME280_temperature;BME280_humidity;BME280_pressure;Samples;Min_cycle;Max_cycle;Signal;HPM_P1;HPM_P2
2022/01/18 00:01:58;;;;;;;26.38;6.10;;;;;;;;;;5049845;28;20052;-64
2022/01/18 00:04:24;;;;;;;26.33;6.07;;;;;;;;;;5050305;28;20421;-64
2022/01/18 00:06:52;;;;;;;33.63;6.10;;;;;;;;;;5052025;28;20041;-65
2022/01/18 00:09:21;;;;;;;29.13;6.10;;;;;;;;;;5054345;28;20528;-65
2022/01/18 00:11:59;;;;;;;42.63;6.90;;;;;;;;;;5053940;28;20041;-64
2022/01/18 00:14:28;;;;;;;35.25;5.30;;;;;;;;;;5036672;28;20570;-64
2022/01/18 00:19:26;;;;;;;32.50;6.07;;;;;;;;;;5054035;28;20055;-66
2022/01/18 00:22:11;;;;;;;31.98;7.40;;;;;;;;;;5053386;28;20045;-65
2022/01/18 00:24:39;;;;;;;36.40;7.07;;;;;;;;;;5053494;28;20143;-65
2022/01/18 00:27:09;;;;;;;37.17;6.28;;;;;;;;;;5054011;28;20532;-65
2022/01/18 00:29:39;;;;;;;34.38;6.03;;;;;;;;;;5053458;28;20107;-65
2022/01/18 00:34:35;;;;;;;30.08;6.53;;;;;;;;;;5053703;28;20037;-65
2022/01/18 00:37:26;;;;;;;34.45;6.32;;;;;;;;;;5036025;28;20115;-66
2022/01/18 00:39:47;;;;;;;40.75;7.00;;;;;;;;;;5052188;28;20098;-70
2022/01/18 00:42:13;;;;;;;39.97;7.18;;;;;;;;;;5052900;28;20037;-65
2022/01/18 00:44:39;;;;;;;37.33;6.70;;;;;;;;;;5053467;28;20041;-66
2022/01/18 00:47:05;;;;;;;32.97;7.00;;;;;;;;;;5053683;28;20079;-64
2022/01/18 00:49:32;;;;;;;30.40;6.28;;;;;;;;;;5053662;28;20037;-64
2022/01/18 00:52:03;;;;;;;39.15;7.93;;;;;;;;;;5053591;28;19920;-65
2022/01/18 00:54:36;;;;;;;35.03;7.28;;;;;;;;;;5053433;28;20044;-65
2022/01/18 00:57:02;;;;;;;33.70;6.75;;;;;;;;;;5053652;28;20443;-65
2022/01/18 00:59:28;;;;;;;34.92;7.20;;;;;;;;;;5053424;28;20041;-65
2022/01/18 01:01:54;;;;;;;41.13;8.48;;;;;;;;;;5052597;28;20036;-64
2022/01/18 01:04:23;;;;;;;27.90;6.53;;;;;;;;;;5035655;28;20041;-65
2022/01/18 01:06:50;;;;;;;41.70;7.57;;;;;;;;;;5053271;28;20545;-64
2022/01/18 01:09:16;;;;;;;32.08;6.05;;;;;;;;;;5053336;28;20033;-64
2022/01/18 01:11:42;;;;;;;34.95;7.60;;;;;;;;;;5052695;28;20138;-64
2022/01/18 01:14:13;;;;;;;40.17;7.72;;;;;;;;;;5052859;28;20120;-64
2022/01/18 01:16:55;;;;;;;39.28;7.47;;;;;;;;;;5053523;28;20049;-63
2022/01/18 01:44:04;;;;;;;44.33;8.13;;;;;;;;;;5052534;28;20382;-64
2022/01/18 01:46:30;;;;;;;41.90;7.63;;;;;;;;;;5052071;28;20044;-64
2022/01/18 01:48:58;;;;;;;49.20;7.80;;;;;;;;;;5052399;28;20464;-64
2022/01/18 01:51:31;;;;;;;36.30;7.55;;;;;;;;;;5051116;28;20103;-64
2022/01/18 01:53:59;;;;;;;39.05;7.80;;;;;;;;;;5034097;28;20045;-65
2022/01/18 01:56:25;;;;;;;42.15;8.45;;;;;;;;;;5052260;28;20040;-64
2022/01/18 01:58:51;;;;;;;33.88;7.70;;;;;;;;;;5052362;28;20037;-64
2022/01/18 02:01:17;;;;;;;34.50;7.43;;;;;;;;;;5034293;28;20401;-64
2022/01/18 02:03:43;;;;;;;38.75;7.90;;;;;;;;;;5052118;28;20045;-64
2022/01/18 02:06:09;;;;;;;48.92;8.35;;;;;;;;;;5051838;28;20421;-65
2022/01/18 02:08:35;;;;;;;39.13;8.15;;;;;;;;;;5051164;28;20045;-64
2022/01/18 02:11:01;;;;;;;34.80;7.55;;;;;;;;;;5051453;28;20041;-64
2022/01/18 02:13:27;;;;;;;34.92;7.88;;;;;;;;;;5033626;28;20056;-65
2022/01/18 02:21:46;;;;;;;29.95;6.93;;;;;;;;;;5034026;28;20482;-64
2022/01/18 02:21:48;;;;;;;36.08;8.27;;;;;;;;;;5050951;28;20086;-64
2022/01/18 02:24:16;;;;;;;41.95;8.88;;;;;;;;;;5051419;28;20048;-64
2022/01/18 02:26:42;;;;;;;43.47;8.63;;;;;;;;;;5033550;28;20124;-67
2022/01/18 02:29:09;;;;;;;47.70;9.80;;;;;;;;;;5032662;28;20052;-65
2022/01/18 02:31:36;;;;;;;43.30;8.45;;;;;;;;;;5050925;28;20044;-64
2022/01/18 02:34:05;;;;;;;34.00;6.85;;;;;;;;;;5051830;28;20494;-65
2022/01/18 02:36:32;;;;;;;29.98;8.57;;;;;;;;;;5051383;28;20043;-64
2022/01/18 02:38:58;;;;;;;37.92;8.35;;;;;;;;;;5051189;28;20036;-64
2022/01/18 02:41:29;;;;;;;39.80;8.93;;;;;;;;;;5051096;28;20047;-66
2022/01/18 02:43:59;;;;;;;35.67;9.05;;;;;;;;;;5033314;28;20049;-64
2022/01/18 02:46:27;;;;;;;29.42;7.07;;;;;;;;;;5051361;28;20210;-64
2022/01/18 02:48:53;;;;;;;37.92;8.20;;;;;;;;;;5051205;28;20051;-63
2022/01/18 02:51:19;;;;;;;32.83;9.05;;;;;;;;;;5050701;28;20044;-64
2022/01/18 02:53:55;;;;;;;32.25;8.20;;;;;;;;;;5051110;28;20040;-65
2022/01/18 02:56:23;;;;;;;27.63;7.25;;;;;;;;;;5051034;28;20448;-65
2022/01/18 02:58:49;;;;;;;32.88;7.55;;;;;;;;;;5051032;28;20116;-64
2022/01/18 03:04:00;;;;;;;36.42;8.55;;;;;;;;;;5033351;28;20076;-65
2022/01/18 03:06:26;;;;;;;32.75;8.13;;;;;;;;;;5051399;28;20473;-65
2022/01/18 03:08:52;;;;;;;29.65;8.45;;;;;;;;;;5051588;28;20047;-64
2022/01/18 03:11:18;;;;;;;32.85;7.75;;;;;;;;;;5050454;28;20044;-64
2022/01/18 03:13:44;;;;;;;25.58;7.63;;;;;;;;;;5051532;28;20450;-64
2022/01/18 03:16:10;;;;;;;25.20;7.03;;;;;;;;;;5051528;28;20115;-65
2022/01/18 03:18:36;;;;;;;32.47;8.25;;;;;;;;;;5051264;28;20124;-64
2022/01/18 03:21:02;;;;;;;30.15;8.40;;;;;;;;;;5050741;28;20120;-65
2022/01/18 03:23:28;;;;;;;27.27;7.45;;;;;;;;;;5033580;28;20048;-64
2022/01/18 03:25:57;;;;;;;33.17;8.35;;;;;;;;;;5051475;28;20045;-64
2022/01/18 03:28:24;;;;;;;29.35;8.63;;;;;;;;;;5033774;28;20172;-63
2022/01/18 03:30:54;;;;;;;36.88;8.57;;;;;;;;;;5051189;28;20045;-65
2022/01/18 03:33:21;;;;;;;42.28;8.88;;;;;;;;;;5051054;28;20040;-64
2022/01/18 03:35:48;;;;;;;34.95;7.43;;;;;;;;;;5033247;28;20041;-64
2022/01/18 03:38:14;;;;;;;33.83;8.15;;;;;;;;;;5051002;28;20415;-64
2022/01/18 03:40:40;;;;;;;28.05;7.63;;;;;;;;;;5032952;28;20103;-64
2022/01/18 03:43:10;;;;;;;32.38;7.90;;;;;;;;;;5050494;28;20049;-64
2022/01/18 03:45:41;;;;;;;23.27;7.07;;;;;;;;;;5051361;28;20056;-65
2022/01/18 03:48:12;;;;;;;22.33;7.07;;;;;;;;;;5051189;28;20115;-65
2022/01/18 03:50:38;;;;;;;30.25;8.05;;;;;;;;;;5050253;28;20041;-65
2022/01/18 03:53:04;;;;;;;29.08;8.02;;;;;;;;;;5050658;28;20116;-65
2022/01/18 03:55:30;;;;;;;29.27;7.93;;;;;;;;;;5050613;28;20041;-65
2022/01/18 03:57:56;;;;;;;25.23;9.15;;;;;;;;;;5050983;28;20068;-64
2022/01/18 04:00:23;;;;;;;26.48;7.72;;;;;;;;;;5050517;28;20041;-65
2022/01/18 04:02:50;;;;;;;25.67;7.95;;;;;;;;;;5050668;28;20044;-65
2022/01/18 04:05:16;;;;;;;29.85;7.65;;;;;;;;;;5050039;28;20490;-65
2022/01/18 04:07:42;;;;;;;29.02;8.70;;;;;;;;;;5050462;28;20545;-65
2022/01/18 04:10:09;;;;;;;29.80;7.70;;;;;;;;;;5050327;28;20129;-65
2022/01/18 04:12:35;;;;;;;27.13;7.72;;;;;;;;;;5050209;28;20041;-64
2022/01/18 04:15:03;;;;;;;30.65;8.45;;;;;;;;;;5050718;28;20044;-65
2022/01/18 04:18:04;;;;;;;25.70;6.78;;;;;;;;;;5015552;28;20044;-66
2022/01/18 04:28:37;;;;;;;27.67;6.80;;;;;;;;;;5032189;28;20114;-64
2022/01/18 04:31:04;;;;;;;32.13;6.55;;;;;;;;;;5049619;28;20129;-64
2022/01/18 04:33:30;;;;;;;21.73;7.47;;;;;;;;;;5049392;28;20075;-64
2022/01/18 04:35:56;;;;;;;29.77;7.20;;;;;;;;;;5049682;28;20517;-64
2022/01/18 04:38:22;;;;;;;26.10;6.38;;;;;;;;;;5031716;28;20367;-66
2022/01/18 04:40:49;;;;;;;25.75;6.10;;;;;;;;;;5046214;28;20044;-65
2022/01/18 04:43:26;;;;;;;25.73;6.18;;;;;;;;;;5047517;28;20046;-64
2022/01/18 04:48:37;;;;;;;30.77;6.53;;;;;;;;;;5049550;28;20082;-64
2022/01/18 04:51:08;;;;;;;32.28;7.18;;;;;;;;;;5049061;28;20076;-64
2022/01/18 04:53:36;;;;;;;27.50;6.18;;;;;;;;;;5052238;28;20048;-64
2022/01/18 04:56:07;;;;;;;25.35;6.97;;;;;;;;;;5053811;28;20401;-65
2022/01/18 04:58:33;;;;;;;25.15;5.93;;;;;;;;;;5053999;28;20041;-64
2022/01/18 05:01:00;;;;;;;27.30;6.20;;;;;;;;;;5035561;28;20040;-63
2022/01/18 05:03:27;;;;;;;19.17;5.50;;;;;;;;;;5052917;28;20045;-64
2022/01/18 05:05:56;;;;;;;21.30;5.60;;;;;;;;;;5053503;28;20040;-65
2022/01/18 05:08:23;;;;;;;15.60;5.45;;;;;;;;;;5053104;28;20049;-65
2022/01/18 05:10:55;;;;;;;23.98;5.40;;;;;;;;;;5055127;28;20045;-64
2022/01/18 05:13:41;;;;;;;21.85;5.25;;;;;;;;;;5051646;28;20044;-64
2022/01/18 05:21:24;;;;;;;21.05;5.30;;;;;;;;;;5052566;28;20136;-64
2022/01/18 05:23:50;;;;;;;29.70;5.38;;;;;;;;;;5049595;28;20097;-65
2022/01/18 05:26:16;;;;;;;23.95;5.45;;;;;;;;;;5052888;28;20079;-64
2022/01/18 05:28:42;;;;;;;15.35;4.90;;;;;;;;;;5052262;28;20049;-64
2022/01/18 05:31:08;;;;;;;20.70;4.55;;;;;;;;;;5051545;28;20062;-64
2022/01/18 05:33:34;;;;;;;18.85;4.80;;;;;;;;;;5051942;28;20033;-65
2022/01/18 05:36:00;;;;;;;27.30;7.03;;;;;;;;;;5048596;28;20047;-64
2022/01/18 05:38:26;;;;;;;19.48;5.28;;;;;;;;;;5048595;28;20064;-64
2022/01/18 05:40:52;;;;;;;22.77;5.53;;;;;;;;;;5030123;28;20049;-65
2022/01/18 05:43:18;;;;;;;23.25;5.55;;;;;;;;;;5047258;28;20527;-65
2022/01/18 05:45:44;;;;;;;17.92;5.50;;;;;;;;;;5029538;28;20100;-63
2022/01/18 05:48:10;;;;;;;19.73;6.00;;;;;;;;;;5046321;28;20041;-64
2022/01/18 05:50:39;;;;;;;18.65;5.30;;;;;;;;;;5049156;28;20044;-65
2022/01/18 05:53:14;;;;;;;15.93;6.43;;;;;;;;;;5050261;28;20106;-64
2022/01/18 05:55:46;;;;;;;24.65;5.68;;;;;;;;;;5050828;28;20528;-64
2022/01/18 05:58:12;;;;;;;16.00;4.65;;;;;;;;;;5051339;28;20033;-64
2022/01/18 06:00:41;;;;;;;17.05;4.93;;;;;;;;;;5033478;28;20040;-65
2022/01/18 06:03:15;;;;;;;18.80;5.25;;;;;;;;;;5033040;28;20544;-64
2022/01/18 06:08:27;;;;;;;22.60;5.70;;;;;;;;;;5038554;28;20451;-64
2022/01/18 06:10:53;;;;;;;20.60;5.03;;;;;;;;;;5029907;28;20053;-64
2022/01/18 06:13:19;;;;;;;16.98;4.63;;;;;;;;;;5037431;28;20047;-64
2022/01/18 06:15:45;;;;;;;16.38;4.97;;;;;;;;;;5050556;28;20047;-64
2022/01/18 06:18:12;;;;;;;17.50;4.93;;;;;;;;;;5032753;28;20037;-65
2022/01/18 06:20:42;;;;;;;20.60;4.60;;;;;;;;;;5049653;28;20336;-65
2022/01/18 06:23:14;;;;;;;18.02;4.63;;;;;;;;;;5029562;28;20080;-65
2022/01/18 06:25:41;;;;;;;15.65;4.95;;;;;;;;;;5049339;28;20037;-65
2022/01/18 06:28:13;;;;;;;13.98;4.97;;;;;;;;;;5050797;28;20444;-65
2022/01/18 06:30:39;;;;;;;23.67;5.25;;;;;;;;;;5033639;28;20044;-65
2022/01/18 06:33:05;;;;;;;23.52;5.85;;;;;;;;;;5033227;28;20505;-64
2022/01/18 06:35:31;;;;;;;19.38;4.60;;;;;;;;;;5052325;28;20494;-62
2022/01/18 06:37:57;;;;;;;15.52;4.70;;;;;;;;;;5034080;28;20425;-64
2022/01/18 06:40:24;;;;;;;25.60;6.22;;;;;;;;;;5052203;28;20072;-64
2022/01/18 06:42:50;;;;;;;25.25;5.70;;;;;;;;;;5050888;28;20100;-65
2022/01/18 06:45:16;;;;;;;19.80;6.15;;;;;;;;;;5051214;28;20045;-65
2022/01/18 06:47:48;;;;;;;16.27;5.60;;;;;;;;;;5050614;28;20120;-65
2022/01/18 06:50:14;;;;;;;17.27;5.47;;;;;;;;;;5051192;28;20052;-65
2022/01/18 06:52:40;;;;;;;20.48;5.45;;;;;;;;;;5050536;28;20400;-64
2022/01/18 06:55:08;;;;;;;16.40;5.95;;;;;;;;;;5051171;28;20458;-65
2022/01/18 06:57:34;;;;;;;20.52;7.20;;;;;;;;;;5051070;28;20072;-64
2022/01/18 07:00:00;;;;;;;21.50;7.53;;;;;;;;;;5033433;28;20110;-65
2022/01/18 07:02:32;;;;;;;17.52;5.07;;;;;;;;;;5050818;28;20047;-64
2022/01/18 07:04:58;;;;;;;17.65;5.15;;;;;;;;;;5033448;28;20532;-64
2022/01/18 07:07:25;;;;;;;14.40;6.10;;;;;;;;;;5051123;28;20072;-64
2022/01/18 07:09:51;;;;;;;14.15;5.65;;;;;;;;;;5050964;28;20103;-64
2022/01/18 07:12:28;;;;;;;16.33;5.78;;;;;;;;;;5047270;28;20045;-64
2022/01/18 07:15:02;;;;;;;15.48;4.85;;;;;;;;;;5050326;28;20470;-65
2022/01/18 07:17:28;;;;;;;15.60;5.30;;;;;;;;;;5050854;28;20041;-64
2022/01/18 07:19:54;;;;;;;15.25;6.40;;;;;;;;;;5050715;28;20194;-64
2022/01/18 07:22:20;;;;;;;19.10;8.07;;;;;;;;;;5051036;28;20391;-65
2022/01/18 07:24:55;;;;;;;21.13;8.20;;;;;;;;;;5051349;28;20073;-65
2022/01/18 07:27:21;;;;;;;20.70;6.85;;;;;;;;;;5050689;28;20100;-66
2022/01/18 07:29:53;;;;;;;18.75;8.80;;;;;;;;;;5050697;28;20037;-65
2022/01/18 07:32:26;;;;;;;23.13;7.18;;;;;;;;;;5032448;28;20048;-65
2022/01/18 07:34:54;;;;;;;18.35;5.60;;;;;;;;;;5032470;28;20106;-64
2022/01/18 07:37:40;;;;;;;24.35;11.88;;;;;;;;;;5051022;28;20154;-64
2022/01/18 07:40:07;;;;;;;21.60;10.52;;;;;;;;;;5050686;28;20037;-64
2022/01/18 07:42:36;;;;;;;20.48;10.55;;;;;;;;;;5050103;28;20043;-64
2022/01/18 07:45:02;;;;;;;21.02;7.45;;;;;;;;;;5050402;28;20037;-64
2022/01/18 07:47:36;;;;;;;16.02;5.90;;;;;;;;;;5050615;28;20166;-65
2022/01/18 07:50:02;;;;;;;12.48;5.90;;;;;;;;;;5050139;28;20490;-64
2022/01/18 07:52:29;;;;;;;22.27;6.47;;;;;;;;;;5049839;28;20039;-63
2022/01/18 07:54:56;;;;;;;16.65;6.30;;;;;;;;;;5049071;28;20096;-64
2022/01/18 07:57:22;;;;;;;17.88;6.30;;;;;;;;;;5050007;28;20132;-64
2022/01/18 07:59:48;;;;;;;15.93;6.85;;;;;;;;;;5049912;28;20065;-65
2022/01/18 08:02:14;;;;;;;15.80;7.30;;;;;;;;;;5032008;28;20045;-65
2022/01/18 08:04:40;;;;;;;21.42;7.22;;;;;;;;;;5050040;28;20044;-64
2022/01/18 08:07:07;;;;;;;20.52;7.90;;;;;;;;;;5049990;28;20045;-65
2022/01/18 08:09:33;;;;;;;19.60;7.38;;;;;;;;;;5050602;28;20516;-64
2022/01/18 08:11:59;;;;;;;19.85;6.63;;;;;;;;;;5049808;28;20048;-64
2022/01/18 08:14:29;;;;;;;23.08;9.25;;;;;;;;;;5050146;28;20037;-66
2022/01/18 08:17:01;;;;;;;20.13;7.18;;;;;;;;;;5049768;28;20064;-66
2022/01/18 08:19:30;;;;;;;22.42;8.43;;;;;;;;;;5049702;28;20037;-65
2022/01/18 08:21:56;;;;;;;18.65;6.45;;;;;;;;;;5031910;28;20052;-66
2022/01/18 08:24:22;;;;;;;18.17;7.70;;;;;;;;;;5032299;28;20048;-63
2022/01/18 08:26:48;;;;;;;23.92;10.32;;;;;;;;;;5050077;28;20047;-64
2022/01/18 08:29:14;;;;;;;22.80;8.07;;;;;;;;;;5053816;28;20075;-64
2022/01/18 08:31:41;;;;;;;18.10;7.57;;;;;;;;;;5053443;28;20501;-64
2022/01/18 08:34:07;;;;;;;22.02;9.70;;;;;;;;;;5053649;28;20072;-65
2022/01/18 08:36:33;;;;;;;24.33;8.57;;;;;;;;;;5054025;28;20033;-65
2022/01/18 08:39:00;;;;;;;22.05;9.15;;;;;;;;;;5035712;28;20044;-65
2022/01/18 08:41:26;;;;;;;25.40;13.75;;;;;;;;;;5053583;28;20142;-64
2022/01/18 08:43:53;;;;;;;26.52;10.57;;;;;;;;;;5053548;28;20154;-65
2022/01/18 08:46:19;;;;;;;26.33;10.45;;;;;;;;;;5054009;28;20056;-65
2022/01/18 08:48:45;;;;;;;27.48;13.65;;;;;;;;;;5053431;28;20583;-63
2022/01/18 08:51:11;;;;;;;26.77;11.18;;;;;;;;;;5052997;28;20067;-65
2022/01/18 08:53:37;;;;;;;24.60;11.13;;;;;;;;;;5054107;28;20041;-64
2022/01/18 08:56:04;;;;;;;26.30;13.63;;;;;;;;;;5054324;28;20474;-65
2022/01/18 08:58:31;;;;;;;37.08;21.08;;;;;;;;;;5053904;28;20079;-66
2022/01/18 09:00:58;;;;;;;28.95;11.98;;;;;;;;;;5053254;28;20045;-64
2022/01/18 09:03:24;;;;;;;31.50;14.38;;;;;;;;;;5053799;28;20394;-63
2022/01/18 09:05:50;;;;;;;24.70;11.90;;;;;;;;;;5053727;28;20033;-64
2022/01/18 09:08:18;;;;;;;25.23;12.10;;;;;;;;;;5036004;28;20339;-66
2022/01/18 09:10:46;;;;;;;25.20;13.00;;;;;;;;;;5053036;28;20045;-65
2022/01/18 09:13:13;;;;;;;27.23;9.32;;;;;;;;;;5052366;28;20120;-65
2022/01/18 09:15:39;;;;;;;24.33;9.15;;;;;;;;;;5052694;28;20098;-65
2022/01/18 09:18:05;;;;;;;27.13;10.48;;;;;;;;;;5052923;28;20036;-66
2022/01/18 09:20:31;;;;;;;28.70;11.57;;;;;;;;;;5053031;28;20037;-66
2022/01/18 09:22:58;;;;;;;46.53;24.33;;;;;;;;;;5034837;28;20041;-66
2022/01/18 09:25:29;;;;;;;32.53;16.67;;;;;;;;;;5053069;28;20440;-66
2022/01/18 09:27:55;;;;;;;27.40;9.50;;;;;;;;;;5035182;28;20029;-66
2022/01/18 09:30:26;;;;;;;23.05;11.02;;;;;;;;;;5053107;28;20045;-66
2022/01/18 09:32:52;;;;;;;26.60;9.63;;;;;;;;;;5034800;28;20048;-65
2022/01/18 09:35:20;;;;;;;16.38;6.35;;;;;;;;;;5053165;28;20044;-65
2022/01/18 09:37:46;;;;;;;18.58;7.82;;;;;;;;;;5052918;28;20047;-63
2022/01/18 09:40:14;;;;;;;16.23;6.82;;;;;;;;;;5052485;28;20044;-64
2022/01/18 09:42:43;;;;;;;18.50;9.00;;;;;;;;;;5051841;28;20056;-64
2022/01/18 09:45:12;;;;;;;20.15;6.93;;;;;;;;;;5052902;28;20041;-64
2022/01/18 09:47:40;;;;;;;15.20;7.40;;;;;;;;;;5052931;28;20123;-64
2022/01/18 09:50:08;;;;;;;20.08;8.32;;;;;;;;;;5052319;28;20040;-63
2022/01/18 09:52:37;;;;;;;19.70;10.02;;;;;;;;;;5052683;28;20032;-64
2022/01/18 09:55:03;;;;;;;17.35;6.65;;;;;;;;;;5052413;28;20072;-64
2022/01/18 09:57:30;;;;;;;16.73;6.93;;;;;;;;;;5034443;28;20049;-65
2022/01/18 09:59:57;;;;;;;15.95;7.40;;;;;;;;;;5052123;28;20530;-66
2022/01/18 10:02:23;;;;;;;18.58;7.07;;;;;;;;;;5051707;28;20064;-65
2022/01/18 10:04:51;;;;;;;18.70;7.53;;;;;;;;;;5051938;28;20067;-66
2022/01/18 10:07:18;;;;;;;15.75;6.90;;;;;;;;;;5052095;28;20049;-65
2022/01/18 10:09:44;;;;;;;22.70;7.80;;;;;;;;;;5033896;28;20045;-65
2022/01/18 10:12:12;;;;;;;17.63;7.28;;;;;;;;;;5033571;28;20412;-65
2022/01/18 10:14:40;;;;;;;15.05;5.93;;;;;;;;;;5051973;28;20170;-65
2022/01/18 10:17:06;;;;;;;15.75;7.50;;;;;;;;;;5051954;28;20036;-65
2022/01/18 10:19:40;;;;;;;19.10;7.15;;;;;;;;;;5051738;28;20395;-65
2022/01/18 10:22:06;;;;;;;12.75;6.10;;;;;;;;;;5051324;28;20045;-65
2022/01/18 10:24:32;;;;;;;19.02;6.43;;;;;;;;;;5051298;28;20165;-65
2022/01/18 10:26:59;;;;;;;17.77;6.75;;;;;;;;;;5051960;28;20091;-65
2022/01/18 10:29:29;;;;;;;13.65;6.15;;;;;;;;;;5051892;28;20048;-65
2022/01/18 10:31:58;;;;;;;19.95;6.97;;;;;;;;;;5051354;28;20051;-65
2022/01/18 10:37:04;;;;;;;14.88;7.43;;;;;;;;;;5050771;28;20051;-65
2022/01/18 10:39:35;;;;;;;14.05;6.90;;;;;;;;;;5051695;28;20043;-65
2022/01/18 10:42:02;;;;;;;14.07;7.28;;;;;;;;;;5051085;28;20125;-65
2022/01/18 10:44:31;;;;;;;13.43;7.05;;;;;;;;;;5051428;28;20068;-65
2022/01/18 10:46:57;;;;;;;18.98;9.15;;;;;;;;;;5051422;28;20076;-65
2022/01/18 10:49:31;;;;;;;14.57;8.05;;;;;;;;;;5033381;28;20102;-64
2022/01/18 10:52:02;;;;;;;18.08;11.32;;;;;;;;;;5050102;28;20051;-65
2022/01/18 10:54:36;;;;;;;14.40;7.50;;;;;;;;;;5033204;28;20126;-64
2022/01/18 10:57:03;;;;;;;20.08;12.90;;;;;;;;;;5050995;28;20043;-64
2022/01/18 10:59:29;;;;;;;18.13;8.90;;;;;;;;;;5033679;28;20472;-64
2022/01/18 11:02:10;;;;;;;16.45;8.45;;;;;;;;;;5050004;28;20083;-65
2022/01/18 11:04:38;;;;;;;20.40;10.63;;;;;;;;;;5033155;28;20413;-64
2022/01/18 11:07:05;;;;;;;17.45;8.38;;;;;;;;;;5050951;28;20048;-64
2022/01/18 11:09:31;;;;;;;16.77;7.00;;;;;;;;;;5050965;28;20120;-64
2022/01/18 11:11:57;;;;;;;15.35;7.70;;;;;;;;;;5050244;28;20048;-64
2022/01/18 11:14:25;;;;;;;22.73;11.15;;;;;;;;;;5050672;28;20036;-64
2022/01/18 11:16:52;;;;;;;16.83;9.45;;;;;;;;;;5051026;28;20041;-65
2022/01/18 11:21:49;;;;;;;12.95;6.35;;;;;;;;;;5050443;28;20092;-63
2022/01/18 11:24:15;;;;;;;13.18;6.30;;;;;;;;;;5050454;28;20170;-64
2022/01/18 11:26:43;;;;;;;10.48;5.63;;;;;;;;;;5050355;28;20402;-65
2022/01/18 11:29:10;;;;;;;14.43;7.03;;;;;;;;;;5050782;28;20045;-62
2022/01/18 11:31:36;;;;;;;9.82;5.43;;;;;;;;;;5050604;28;20179;-63
2022/01/18 11:34:03;;;;;;;13.20;7.45;;;;;;;;;;5051119;28;20243;-65
2022/01/18 11:36:33;;;;;;;11.90;7.65;;;;;;;;;;5050772;28;20040;-65
2022/01/18 11:39:01;;;;;;;6.13;3.38;;;;;;;;;;5050408;28;20049;-65
2022/01/18 11:41:29;;;;;;;9.40;4.75;;;;;;;;;;5015352;28;20044;-65
2022/01/18 11:43:56;;;;;;;9.77;5.70;;;;;;;;;;5032591;28;20139;-65
2022/01/18 11:46:22;;;;;;;19.50;12.30;;;;;;;;;;5050805;28;20040;-65
2022/01/18 11:48:49;;;;;;;11.85;4.70;;;;;;;;;;5051207;28;20039;-66
2022/01/18 11:51:20;;;;;;;16.58;10.07;;;;;;;;;;5050021;28;20041;-65
2022/01/18 11:56:37;;;;;;;10.40;4.47;;;;;;;;;;5050715;28;20047;-65
2022/01/18 11:59:13;;;;;;;8.02;4.32;;;;;;;;;;5032794;28;20041;-66
2022/01/18 12:01:46;;;;;;;8.68;3.30;;;;;;;;;;5032637;28;20045;-66
2022/01/18 12:04:12;;;;;;;8.07;3.97;;;;;;;;;;5050281;28;20041;-66
2022/01/18 12:06:45;;;;;;;9.43;3.20;;;;;;;;;;5050104;28;20045;-64
2022/01/18 12:09:30;;;;;;;8.95;3.33;;;;;;;;;;5050250;28;20094;-66
2022/01/18 12:11:56;;;;;;;9.50;3.88;;;;;;;;;;5031895;28;20041;-64
2022/01/18 12:14:35;;;;;;;17.55;6.68;;;;;;;;;;5050307;28;20041;-64
2022/01/18 12:17:14;;;;;;;14.02;7.10;;;;;;;;;;5049876;28;20119;-65
2022/01/18 12:19:47;;;;;;;15.10;7.43;;;;;;;;;;5032171;28;20045;-66
2022/01/18 12:22:14;;;;;;;17.30;5.93;;;;;;;;;;5031891;28;20494;-66
2022/01/18 12:24:46;;;;;;;11.70;5.93;;;;;;;;;;5049886;28;20467;-66
2022/01/18 12:27:32;;;;;;;9.32;4.63;;;;;;;;;;5032217;28;20057;-67
2022/01/18 12:33:18;;;;;;;12.57;6.03;;;;;;;;;;5049708;28;20053;-67
2022/01/18 12:35:44;;;;;;;11.45;4.43;;;;;;;;;;5032172;28;20037;-66
2022/01/18 12:38:21;;;;;;;22.80;14.65;;;;;;;;;;5050179;28;20037;-66
2022/01/18 12:40:47;;;;;;;13.05;5.78;;;;;;;;;;5050120;28;20056;-65
2022/01/18 12:45:40;;;;;;;11.73;4.60;;;;;;;;;;5050159;28;20421;-64
2022/01/18 12:48:10;;;;;;;13.77;7.53;;;;;;;;;;5050139;28;20112;-64
2022/01/18 12:50:38;;;;;;;15.85;6.50;;;;;;;;;;5032265;28;20037;-65
2022/01/18 12:53:08;;;;;;;11.70;4.72;;;;;;;;;;5049441;28;20128;-64
2022/01/18 12:55:38;;;;;;;9.40;3.88;;;;;;;;;;5050094;28;20117;-64
2022/01/18 12:58:16;;;;;;;13.57;4.70;;;;;;;;;;5050410;28;20044;-63
2022/01/18 13:00:47;;;;;;;23.17;9.02;;;;;;;;;;5050197;28;20037;-63
2022/01/18 13:03:35;;;;;;;20.02;10.43;;;;;;;;;;5031864;28;20044;-63
2022/01/18 13:06:03;;;;;;;35.42;16.83;;;;;;;;;;5049094;28;20081;-65
2022/01/18 13:08:39;;;;;;;12.38;5.60;;;;;;;;;;5031278;28;20147;-64
2022/01/18 13:11:05;;;;;;;9.88;3.67;;;;;;;;;;5049731;28;20048;-65
2022/01/18 13:13:33;;;;;;;11.52;3.83;;;;;;;;;;5033055;28;20390;-64
2022/01/18 13:26:41;;;;;;;10.25;4.65;;;;;;;;;;5053684;28;20045;-65
2022/01/18 13:29:13;;;;;;;12.63;4.25;;;;;;;;;;5053517;28;20099;-64
2022/01/18 13:31:42;;;;;;;8.73;3.63;;;;;;;;;;5034969;28;20037;-65
2022/01/18 13:34:11;;;;;;;10.73;5.07;;;;;;;;;;5052967;28;20049;-65
2022/01/18 13:36:51;;;;;;;9.60;3.63;;;;;;;;;;5035300;28;20094;-65
2022/01/18 13:39:22;;;;;;;8.90;4.45;;;;;;;;;;5053284;28;20040;-64
2022/01/18 13:41:48;;;;;;;10.63;5.53;;;;;;;;;;5052664;28;20069;-64
2022/01/18 13:44:14;;;;;;;14.80;5.38;;;;;;;;;;5053543;28;20106;-64
2022/01/18 13:46:40;;;;;;;11.23;4.82;;;;;;;;;;5034846;28;20123;-64
2022/01/18 13:49:07;;;;;;;11.88;4.78;;;;;;;;;;5035168;28;20401;-65
2022/01/18 13:51:34;;;;;;;11.48;4.22;;;;;;;;;;5052368;28;20051;-64
2022/01/18 13:54:04;;;;;;;9.82;4.32;;;;;;;;;;5052950;28;20045;-65
2022/01/18 13:56:30;;;;;;;12.27;4.80;;;;;;;;;;5051455;28;20552;-64
2022/01/18 13:59:01;;;;;;;17.40;4.50;;;;;;;;;;5052554;28;20045;-65
2022/01/18 14:01:30;;;;;;;15.75;5.03;;;;;;;;;;5052036;28;20094;-64
2022/01/18 14:03:58;;;;;;;10.73;4.80;;;;;;;;;;5052813;28;20037;-65
2022/01/18 14:06:39;;;;;;;13.90;4.55;;;;;;;;;;5052504;28;20045;-65
2022/01/18 14:09:12;;;;;;;9.07;4.40;;;;;;;;;;5052645;28;20040;-64
2022/01/18 14:11:39;;;;;;;11.90;6.38;;;;;;;;;;5051766;28;20498;-65
2022/01/18 14:14:18;;;;;;;15.82;9.73;;;;;;;;;;5052589;28;20410;-64
2022/01/18 14:16:56;;;;;;;12.48;6.32;;;;;;;;;;5052771;28;20077;-64
2022/01/18 14:19:27;;;;;;;9.82;5.10;;;;;;;;;;5052286;28;20587;-65
2022/01/18 14:21:56;;;;;;;10.32;4.00;;;;;;;;;;5034100;28;20510;-64
2022/01/18 14:24:24;;;;;;;14.55;5.53;;;;;;;;;;5051835;28;20045;-64
2022/01/18 14:26:53;;;;;;;11.35;5.50;;;;;;;;;;5051368;28;20045;-64
2022/01/18 14:29:29;;;;;;;10.50;4.63;;;;;;;;;;5052146;28;20041;-65
2022/01/18 14:32:03;;;;;;;11.20;4.68;;;;;;;;;;5051378;28;20037;-66
2022/01/18 14:34:42;;;;;;;11.75;3.63;;;;;;;;;;5050792;28;20119;-65
2022/01/18 14:37:12;;;;;;;9.40;4.53;;;;;;;;;;5051682;28;20044;-65
2022/01/18 14:40:07;;;;;;;8.60;4.38;;;;;;;;;;5051578;28;20033;-65
2022/01/18 14:42:41;;;;;;;11.77;4.68;;;;;;;;;;5029621;28;20052;-64
2022/01/18 14:47:39;;;;;;;10.90;4.72;;;;;;;;;;5051629;28;20056;-65
2022/01/18 14:50:08;;;;;;;14.13;5.05;;;;;;;;;;5051176;28;20490;-65
2022/01/18 14:52:37;;;;;;;11.07;4.40;;;;;;;;;;5050962;28;20076;-64
2022/01/18 14:55:09;;;;;;;11.05;6.15;;;;;;;;;;5051386;28;20378;-64
2022/01/18 14:57:37;;;;;;;19.45;10.02;;;;;;;;;;5051644;28;20068;-65
2022/01/18 15:00:07;;;;;;;14.75;6.75;;;;;;;;;;5051170;28;20041;-65
2022/01/18 15:02:40;;;;;;;26.45;11.25;;;;;;;;;;5050632;28;20045;-65
2022/01/18 15:05:15;;;;;;;18.88;8.52;;;;;;;;;;5050797;28;20033;-65
2022/01/18 15:07:46;;;;;;;25.90;11.65;;;;;;;;;;5051165;28;20452;-64
2022/01/18 15:10:16;;;;;;;50.80;24.02;;;;;;;;;;5050952;28;20045;-65
2022/01/18 15:12:46;;;;;;;44.00;19.65;;;;;;;;;;5050523;28;20048;-65
2022/01/18 15:15:13;;;;;;;46.00;22.48;;;;;;;;;;5050900;28;20040;-65
2022/01/18 15:17:39;;;;;;;19.88;8.90;;;;;;;;;;5051042;28;20037;-64
2022/01/18 15:20:14;;;;;;;22.15;10.30;;;;;;;;;;5050691;28;20044;-65
2022/01/18 15:22:40;;;;;;;24.40;13.13;;;;;;;;;;5050283;28;20573;-64
2022/01/18 15:25:06;;;;;;;28.23;12.98;;;;;;;;;;5051116;28;20047;-65
2022/01/18 15:27:32;;;;;;;21.60;9.15;;;;;;;;;;5050851;28;20040;-65
2022/01/18 15:29:58;;;;;;;22.08;9.65;;;;;;;;;;5051333;28;20444;-65
2022/01/18 15:32:26;;;;;;;30.85;14.30;;;;;;;;;;5050199;28;20048;-65
2022/01/18 15:34:53;;;;;;;24.38;11.20;;;;;;;;;;5050454;28;20045;-65
2022/01/18 15:37:19;;;;;;;21.20;9.68;;;;;;;;;;5032628;28;20033;-66
2022/01/18 15:39:50;;;;;;;21.27;8.07;;;;;;;;;;5050649;28;20043;-66
2022/01/18 15:42:19;;;;;;;23.25;9.70;;;;;;;;;;5050508;28;20072;-66
2022/01/18 15:44:46;;;;;;;23.58;10.77;;;;;;;;;;5049543;28;20044;-66
2022/01/18 15:47:13;;;;;;;23.98;11.13;;;;;;;;;;5050583;28;20045;-66
2022/01/18 15:49:45;;;;;;;29.80;10.52;;;;;;;;;;5050720;28;20041;-66
2022/01/18 15:52:14;;;;;;;26.48;10.93;;;;;;;;;;5050563;28;20116;-66
2022/01/18 15:54:46;;;;;;;30.15;11.88;;;;;;;;;;5033080;28;20036;-66
2022/01/18 15:57:35;;;;;;;26.88;11.77;;;;;;;;;;5050418;28;20040;-66
2022/01/18 16:00:01;;;;;;;36.30;13.35;;;;;;;;;;5050344;28;20128;-66